createdAt,value
2023-01-01T00:01:02.886Z,100233.22
2023-01-01T00:03:33.615Z,100227.16
2023-01-01T00:06:08.531Z,100239.84
2023-01-01T00:08:40.965Z,100228.72
2023-01-01T00:11:10.238Z,100241.06
2023-01-01T00:13:42.796Z,100243.69
2023-01-01T00:16:22.337Z,100241.81
2023-01-01T00:18:53.069Z,100249.53
2023-01-01T00:21:24.005Z,100228.66
2023-01-01T00:23:54.820Z,100223.97
2023-01-01T00:26:29.513Z,100229.47
2023-01-01T00:29:05.666Z,100236.28
2023-01-01T00:31:38.857Z,100245.69
2023-01-01T00:34:09.557Z,100238.72
2023-01-01T00:36:40.174Z,100249.00
2023-01-01T00:39:10.691Z,100231.31
2023-01-01T00:41:41.311Z,100247.06
2023-01-01T00:44:11.894Z,100218.22
2023-01-01T00:46:45.437Z,100247.41
2023-01-01T00:49:15.857Z,100236.41
2023-01-01T00:51:46.330Z,100234.91
2023-01-01T00:54:16.769Z,100235.28
2023-01-01T00:56:47.264Z,100242.34
2023-01-01T00:59:17.743Z,100231.31
2023-01-01T01:01:50.849Z,100242.47
2023-01-01T01:04:22.003Z,100254.06
2023-01-01T01:06:52.463Z,100255.94
2023-01-01T01:09:22.859Z,100245.75
2023-01-01T01:12:18.142Z,100217.34
2023-01-01T01:14:43.675Z,100253.38
2023-01-01T01:17:16.736Z,100242.91
2023-01-01T01:19:47.125Z,100254.78
2023-01-01T01:22:19.600Z,100271.00
2023-01-01T01:24:53.907Z,100239.91
2023-01-01T01:27:24.376Z,100263.66
2023-01-01T01:29:55.260Z,100248.22
2023-01-01T01:32:28.223Z,100284.78
2023-01-01T01:34:58.700Z,100278.50
2023-01-01T01:37:29.161Z,100293.56
2023-01-01T01:39:59.656Z,100287.31
2023-01-01T01:42:30.178Z,100278.13
2023-01-01T01:45:03.228Z,100276.84
2023-01-01T01:47:53.154Z,100292.09
2023-01-01T01:50:28.607Z,100285.44
2023-01-01T01:53:08.304Z,100274.88
2023-01-01T01:55:40.997Z,100272.47
2023-01-01T01:58:14.335Z,100274.78
2023-01-01T02:00:44.845Z,100270.13
2023-01-01T02:03:22.846Z,100265.03
2023-01-01T02:05:54.872Z,100235.28
2023-01-01T02:08:26.635Z,100269.44
2023-01-01T02:10:57.127Z,100266.19
2023-01-01T02:13:27.744Z,100273.06
2023-01-01T02:16:03.755Z,100274.72
2023-01-01T02:18:45.868Z,100281.25
2023-01-01T02:21:20.289Z,100277.81
2023-01-01T02:24:10.161Z,100282.03
2023-01-01T02:26:53.400Z,100300.69
2023-01-01T02:29:43.174Z,100285.38
2023-01-01T02:32:18.165Z,100298.06
2023-01-01T02:34:52.964Z,100302.16
2023-01-01T02:37:26.253Z,100305.59
2023-01-01T02:40:01.169Z,100297.00
2023-01-01T02:42:32.513Z,100300.22
2023-01-01T02:45:06.904Z,100291.59
2023-01-01T02:47:37.321Z,100304.13
2023-01-01T02:50:14.611Z,100306.41
2023-01-01T02:53:09.633Z,100306.00
2023-01-01T02:55:57.290Z,100303.47
2023-01-01T02:58:44.811Z,100297.41
2023-01-01T03:01:25.861Z,100302.38
2023-01-01T03:04:05.128Z,100310.91
2023-01-01T03:06:43.235Z,100302.09
2023-01-01T03:09:25.400Z,100302.97
2023-01-01T03:12:01.357Z,100311.00
2023-01-01T03:14:41.099Z,100305.25
2023-01-01T03:17:23.813Z,100309.19
2023-01-01T03:19:56.348Z,100311.75
2023-01-01T03:22:33.553Z,100303.59
2023-01-01T03:25:09.530Z,100292.19
2023-01-01T03:27:44.898Z,100313.13
2023-01-01T03:30:17.053Z,100298.50
2023-01-01T03:33:04.279Z,100309.81
2023-01-01T03:35:40.309Z,100308.84
2023-01-01T03:38:17.494Z,100318.00
2023-01-01T03:40:50.074Z,100307.25
2023-01-01T03:43:25.509Z,100306.19
2023-01-01T03:45:58.055Z,100312.00
2023-01-01T03:48:54.599Z,100294.81
2023-01-01T03:51:38.523Z,100293.81
2023-01-01T03:54:16.861Z,100302.25
2023-01-01T03:56:51.315Z,100284.09
2023-01-01T03:59:27.111Z,100297.28
2023-01-01T04:02:01.520Z,100315.38
2023-01-01T04:04:35.016Z,100294.16
2023-01-01T04:07:14.794Z,100322.19
2023-01-01T04:09:52.394Z,100302.66
2023-01-01T04:12:23.904Z,100329.88
2023-01-01T04:14:54.667Z,100338.41
2023-01-01T04:17:25.158Z,100326.25
2023-01-01T04:19:58.322Z,100329.59
2023-01-01T04:22:28.831Z,100317.56
2023-01-01T04:24:59.317Z,100320.00
2023-01-01T04:27:29.809Z,100314.72
2023-01-01T04:30:00.289Z,100335.16
2023-01-01T04:32:32.035Z,100324.75
2023-01-01T04:35:05.271Z,100334.72
2023-01-01T04:37:37.955Z,100340.28
2023-01-01T04:40:10.438Z,100321.66
2023-01-01T04:42:41.107Z,100349.34
2023-01-01T04:45:15.429Z,100355.97
2023-01-01T04:47:46.129Z,100349.91
2023-01-01T04:50:19.444Z,100348.59
2023-01-01T04:52:52.526Z,100363.25
2023-01-01T04:55:23.631Z,100355.22
2023-01-01T04:57:54.124Z,100370.09
2023-01-01T05:00:24.521Z,100346.28
2023-01-01T05:02:54.990Z,100365.91
2023-01-01T05:05:28.142Z,100381.91
2023-01-01T05:07:58.583Z,100365.59
2023-01-01T05:10:29.239Z,100364.47
2023-01-01T05:12:59.708Z,100373.00
2023-01-01T05:15:30.215Z,100373.78
2023-01-01T05:18:00.731Z,100368.69
2023-01-01T05:20:33.727Z,100373.78
2023-01-01T05:23:04.138Z,100364.63
2023-01-01T05:25:34.588Z,100356.13
2023-01-01T05:28:05.081Z,100361.19
2023-01-01T05:30:35.542Z,100370.16
2023-01-01T05:33:06.055Z,100364.19
2023-01-01T05:35:39.183Z,100375.88
2023-01-01T05:38:09.720Z,100370.81
2023-01-01T05:40:41.795Z,100378.53
2023-01-01T05:43:12.484Z,100373.53
2023-01-01T05:45:43.036Z,100403.25
2023-01-01T05:48:14.119Z,100421.09
2023-01-01T05:50:48.193Z,100436.34
2023-01-01T05:53:18.640Z,100435.44
2023-01-01T05:55:55.395Z,100417.69
2023-01-01T05:58:27.310Z,100420.13
2023-01-01T06:00:57.873Z,100423.75
2023-01-01T06:03:28.369Z,100436.56
2023-01-01T06:06:05.427Z,100445.16
2023-01-01T06:08:35.881Z,100426.84
2023-01-01T06:11:07.887Z,100426.31
2023-01-01T06:13:39.296Z,100435.00
2023-01-01T06:16:11.391Z,100424.84
2023-01-01T06:18:42.091Z,100412.75
2023-01-01T06:21:17.272Z,100427.53
2023-01-01T06:23:48.440Z,100418.59
2023-01-01T06:26:20.447Z,100434.59
2023-01-01T06:28:51.543Z,100451.56
2023-01-01T06:31:23.877Z,100449.69
2023-01-01T06:33:55.056Z,100437.69
2023-01-01T06:36:29.399Z,100439.78
2023-01-01T06:39:00.539Z,100428.66
2023-01-01T06:41:31.358Z,100438.81
2023-01-01T06:44:02.402Z,100453.69
2023-01-01T06:46:35.135Z,100456.22
2023-01-01T06:49:08.092Z,100447.50
2023-01-01T06:51:44.127Z,100453.28
2023-01-01T06:54:14.946Z,100457.44
2023-01-01T06:56:45.340Z,100451.38
2023-01-01T06:59:15.869Z,100467.22
2023-01-01T07:01:47.009Z,100451.78
2023-01-01T07:04:19.137Z,100453.31
2023-01-01T07:06:52.207Z,100487.41
2023-01-01T07:09:22.833Z,100501.59
2023-01-01T07:11:53.657Z,100499.16
2023-01-01T07:14:24.287Z,100498.50
2023-01-01T07:16:54.738Z,100499.31
2023-01-01T07:19:25.140Z,100505.13
2023-01-01T07:21:58.491Z,100497.38
2023-01-01T07:24:28.841Z,100514.81
2023-01-01T07:26:59.230Z,100517.22
2023-01-01T07:29:29.710Z,100511.06
2023-01-01T07:32:00.120Z,100500.72
2023-01-01T07:34:30.558Z,100512.38
2023-01-01T07:37:03.698Z,100545.94
2023-01-01T07:39:34.135Z,100532.47
2023-01-01T07:42:10.675Z,100552.97
2023-01-01T07:44:41.494Z,100551.00
2023-01-01T07:47:21.639Z,100572.06
2023-01-01T07:49:52.822Z,100573.06
2023-01-01T07:52:25.960Z,100579.56
2023-01-01T07:54:57.608Z,100585.22
2023-01-01T07:57:28.286Z,100588.63
2023-01-01T07:59:58.838Z,100591.38
2023-01-01T08:02:29.333Z,100593.13
2023-01-01T08:05:00.655Z,100595.97
2023-01-01T08:07:33.830Z,100604.28
2023-01-01T08:10:05.849Z,100612.69
2023-01-01T08:12:36.352Z,100601.75
2023-01-01T08:15:07.298Z,100618.88
2023-01-01T08:17:44.304Z,100617.91
2023-01-01T08:20:16.775Z,100625.75
2023-01-01T08:22:49.782Z,100619.88
2023-01-01T08:25:20.355Z,100631.16
2023-01-01T08:27:51.000Z,100622.63
2023-01-01T08:32:52.989Z,100632.94
2023-01-01T08:35:23.577Z,100640.19
2023-01-01T08:37:56.708Z,100634.00
2023-01-01T08:40:27.489Z,100637.16
2023-01-01T08:42:58.205Z,100633.22
2023-01-01T08:45:28.698Z,100654.16
2023-01-01T08:47:59.234Z,100657.56
2023-01-01T08:50:29.956Z,100665.69
2023-01-01T08:53:03.621Z,100668.22
2023-01-01T08:55:34.219Z,100685.75
2023-01-01T08:58:08.109Z,100697.44
2023-01-01T09:00:38.635Z,100698.22
2023-01-01T09:03:09.241Z,100691.47
2023-01-01T09:05:39.840Z,100705.03
2023-01-01T09:08:12.832Z,100711.00
2023-01-01T09:10:45.368Z,100718.50
2023-01-01T09:13:17.478Z,100736.13
2023-01-01T09:15:48.151Z,100737.53
2023-01-01T09:18:18.591Z,100740.28
2023-01-01T09:20:49.084Z,100745.44
2023-01-01T09:23:22.106Z,100754.38
2023-01-01T09:25:52.539Z,100769.31
2023-01-01T09:28:25.892Z,100765.66
2023-01-01T09:30:56.647Z,100773.91
2023-01-01T09:33:27.244Z,100773.03
2023-01-01T09:35:57.679Z,100801.34
2023-01-01T09:38:30.938Z,100800.34
2023-01-01T09:41:11.111Z,100819.06
2023-01-01T09:43:48.669Z,100810.56
2023-01-01T09:46:19.795Z,100808.81
2023-01-01T09:48:57.510Z,100828.66
2023-01-01T09:51:33.593Z,100836.13
2023-01-01T09:54:13.657Z,100818.53
2023-01-01T09:56:47.552Z,100835.00
2023-01-01T09:59:18.097Z,100817.00
2023-01-01T10:01:57.140Z,100845.00
2023-01-01T10:04:40.757Z,100846.63
2023-01-01T10:07:20.921Z,100837.91
2023-01-01T10:10:06.752Z,100851.28
2023-01-01T10:12:45.204Z,100861.28
2023-01-01T10:15:20.287Z,100856.06
2023-01-01T10:17:55.665Z,100849.72
2023-01-01T10:20:29.941Z,100857.38
2023-01-01T10:23:04.072Z,100863.63
2023-01-01T10:25:37.707Z,100868.25
2023-01-01T10:28:15.334Z,100835.34
2023-01-01T10:30:46.866Z,100874.09
2023-01-01T10:33:17.819Z,100891.22
2023-01-01T10:35:52.394Z,100880.78
2023-01-01T10:38:26.033Z,100902.19
2023-01-01T10:41:06.310Z,100900.13
2023-01-01T10:43:36.762Z,100891.31
2023-01-01T10:46:08.752Z,100912.94
2023-01-01T10:48:39.102Z,100922.34
2023-01-01T10:51:16.915Z,100922.06
2023-01-01T10:53:55.646Z,100924.47
2023-01-01T10:56:40.905Z,100922.53
2023-01-01T10:59:37.056Z,100896.53
2023-01-01T11:02:22.874Z,100901.09
2023-01-01T11:04:54.795Z,100893.34
2023-01-01T11:07:32.262Z,100897.59
2023-01-01T11:10:05.268Z,100884.00
2023-01-01T11:15:40.469Z,100887.97
2023-01-01T11:18:17.008Z,100885.56
2023-01-01T11:20:53.632Z,100874.88
2023-01-01T11:23:33.988Z,100891.78
2023-01-01T11:26:08.427Z,100875.88
2023-01-01T11:28:43.100Z,100890.41
2023-01-01T11:31:18.731Z,100871.88
2023-01-01T11:33:53.114Z,100885.03
2023-01-01T11:36:26.221Z,100858.22
2023-01-01T11:39:10.681Z,100884.53
2023-01-01T11:41:45.344Z,100879.34
2023-01-01T11:44:32.057Z,100870.13
2023-01-01T11:47:02.930Z,100858.88
2023-01-01T11:49:34.168Z,100869.53
2023-01-01T11:52:40.059Z,100841.94
2023-01-01T11:55:21.170Z,100847.41
2023-01-01T11:58:00.476Z,100849.31
2023-01-01T12:00:38.508Z,100833.25
2023-01-01T12:03:18.842Z,100856.72
2023-01-01T12:05:53.608Z,100866.69
2023-01-01T12:08:31.973Z,100877.97
2023-01-01T12:11:10.320Z,100888.59
2023-01-01T12:13:51.102Z,100890.09
2023-01-01T12:16:31.470Z,100896.84
2023-01-01T12:19:08.753Z,100896.44
2023-01-01T12:21:46.238Z,100900.81
2023-01-01T12:24:20.455Z,100910.97
2023-01-01T12:27:10.770Z,100900.78
2023-01-01T12:29:54.533Z,100878.38
2023-01-01T12:32:38.984Z,100914.69
2023-01-01T12:35:21.490Z,100916.34
2023-01-01T12:38:04.409Z,100929.88
2023-01-01T12:40:45.813Z,100922.03
2023-01-01T12:43:25.352Z,100924.25
2023-01-01T12:46:16.342Z,100931.22
2023-01-01T12:49:06.164Z,100934.34
2023-01-01T12:51:46.622Z,100918.19
2023-01-01T12:54:52.706Z,100917.00
2023-01-01T12:57:32.376Z,100930.06
2023-01-01T13:00:07.167Z,100925.91
2023-01-01T13:02:40.753Z,100926.66
2023-01-01T13:05:21.744Z,100914.47
2023-01-01T13:07:58.095Z,100912.34
2023-01-01T13:10:34.370Z,100906.25
2023-01-01T13:13:05.663Z,100915.72
2023-01-01T13:15:48.688Z,100906.44
2023-01-01T13:18:26.268Z,100907.28
2023-01-01T13:21:21.171Z,100900.13
2023-01-01T13:24:12.476Z,100895.47
2023-01-01T13:26:44.354Z,100903.69
2023-01-01T13:29:45.543Z,100911.56
2023-01-01T13:32:17.929Z,100912.59
2023-01-01T13:35:18.676Z,100936.81
2023-01-01T13:37:52.276Z,100935.38
2023-01-01T13:41:04.126Z,100933.47
2023-01-01T13:43:50.368Z,100928.41
2023-01-01T13:46:26.840Z,100880.63
2023-01-01T13:49:18.345Z,100930.19
2023-01-01T13:52:05.871Z,100930.66
2023-01-01T13:55:08.510Z,100929.97
2023-01-01T13:58:01.789Z,100929.41
2023-01-01T14:00:38.885Z,100930.31
2023-01-01T14:03:15.540Z,100920.06
2023-01-01T14:05:49.665Z,100922.44
2023-01-01T14:08:33.302Z,100930.97
2023-01-01T14:11:21.757Z,100933.66
2023-01-01T14:13:52.773Z,100934.88
2023-01-01T14:16:23.527Z,100938.13
2023-01-01T14:18:58.271Z,100952.47
2023-01-01T14:21:33.056Z,100949.50
2023-01-01T14:24:11.374Z,100928.19
2023-01-01T14:26:45.132Z,100941.34
2023-01-01T14:29:23.199Z,100944.38
2023-01-01T14:31:54.296Z,100949.56
2023-01-01T14:34:29.212Z,100951.50
2023-01-01T14:37:01.551Z,100958.63
2023-01-01T14:39:33.733Z,100963.09
2023-01-01T14:42:09.826Z,100965.16
2023-01-01T14:44:44.130Z,100956.53
2023-01-01T14:47:21.761Z,100963.53
2023-01-01T14:49:52.475Z,100956.81
2023-01-01T14:52:28.925Z,100953.44
2023-01-01T14:55:02.149Z,100948.84
2023-01-01T14:57:38.422Z,100953.25
2023-01-01T15:00:24.139Z,100952.53
2023-01-01T15:02:54.844Z,100943.16
2023-01-01T15:05:35.491Z,100938.44
2023-01-01T15:08:09.241Z,100947.63
2023-01-01T15:10:41.664Z,100945.69
2023-01-01T15:13:21.141Z,100954.47
2023-01-01T15:15:58.298Z,100946.59
2023-01-01T15:18:47.076Z,100957.38
2023-01-01T15:21:42.511Z,100968.50
2023-01-01T15:24:26.728Z,100978.16
2023-01-01T15:27:06.787Z,100973.69
2023-01-01T15:29:42.325Z,100993.09
2023-01-01T15:32:16.422Z,100981.13
2023-01-01T15:34:52.140Z,100992.66
2023-01-01T15:37:26.259Z,100994.44
2023-01-01T15:40:00.507Z,100946.00
2023-01-01T15:42:36.521Z,100991.47
2023-01-01T15:45:25.935Z,101000.78
2023-01-01T15:47:59.907Z,101000.03
2023-01-01T15:50:55.923Z,101011.16
2023-01-01T15:53:32.132Z,101003.91
2023-01-01T15:56:07.826Z,101000.53
2023-01-01T15:58:48.808Z,100999.31
2023-01-01T16:01:46.722Z,100991.22
2023-01-01T16:04:47.093Z,100993.03
2023-01-01T16:07:23.833Z,100981.31
2023-01-01T16:09:58.095Z,100981.78
2023-01-01T16:12:29.975Z,100972.59
2023-01-01T16:15:00.521Z,100983.31
2023-01-01T16:17:33.757Z,100989.09
2023-01-01T16:20:04.449Z,100983.19
2023-01-01T16:22:36.856Z,100993.13
2023-01-01T16:25:16.163Z,100985.56
2023-01-01T16:27:46.811Z,100975.81
2023-01-01T16:30:18.154Z,100982.78
2023-01-01T16:32:51.805Z,100989.00
2023-01-01T16:35:22.501Z,100983.63
2023-01-01T16:37:53.514Z,100979.75
2023-01-01T16:40:24.111Z,100983.59
2023-01-01T16:42:54.788Z,100962.69
2023-01-01T16:45:25.263Z,100972.59
2023-01-01T16:47:58.454Z,100977.31
2023-01-01T16:50:28.946Z,100957.06
2023-01-01T16:52:59.842Z,100978.47
2023-01-01T16:55:30.298Z,100978.16
2023-01-01T16:58:37.925Z,100977.56
2023-01-01T17:00:51.610Z,100977.69
2023-01-01T17:03:25.375Z,100980.03
2023-01-01T17:05:56.130Z,100987.28
2023-01-01T17:08:26.677Z,100985.91
2023-01-01T17:11:09.754Z,100984.72
2023-01-01T17:13:42.638Z,100995.19
2023-01-01T17:16:17.831Z,100998.41
2023-01-01T17:21:47.300Z,101007.13
2023-01-01T17:24:18.985Z,100998.63
2023-01-01T17:26:53.010Z,101005.75
2023-01-01T17:29:24.026Z,101009.31
2023-01-01T17:31:55.273Z,100993.28
2023-01-01T17:34:28.793Z,101011.06
2023-01-01T17:36:59.475Z,101012.84
2023-01-01T17:39:30.544Z,101005.28
2023-01-01T17:42:02.508Z,101018.75
2023-01-01T17:44:33.523Z,101019.94
2023-01-01T17:47:03.966Z,101022.13
2023-01-01T17:49:37.349Z,101014.66
2023-01-01T17:52:08.229Z,101000.88
2023-01-01T17:54:39.224Z,101009.44
2023-01-01T17:57:11.526Z,100998.97
2023-01-01T17:59:42.391Z,101001.50
2023-01-01T18:02:15.241Z,100995.56
2023-01-01T18:04:49.575Z,100995.69
2023-01-01T18:07:19.706Z,100995.69
2023-01-01T18:09:50.111Z,100980.38
2023-01-01T18:12:20.604Z,100981.00
2023-01-01T18:14:51.105Z,100980.59
2023-01-01T18:17:22.018Z,100971.56
2023-01-01T18:19:55.129Z,100967.28
2023-01-01T18:22:25.748Z,100966.25
2023-01-01T18:24:56.483Z,100963.72
2023-01-01T18:27:27.364Z,100965.78
2023-01-01T18:29:58.271Z,100954.91
2023-01-01T18:32:28.859Z,100958.47
2023-01-01T18:35:02.055Z,100956.34
2023-01-01T18:37:33.563Z,100933.31
2023-01-01T18:40:04.158Z,100948.91
2023-01-01T18:42:42.597Z,100950.78
2023-01-01T18:45:19.292Z,100946.75
2023-01-01T18:47:50.387Z,100956.00
2023-01-01T18:50:27.721Z,100945.13
2023-01-01T18:53:03.037Z,100950.97
2023-01-01T18:55:34.032Z,100957.63
2023-01-01T18:58:20.111Z,100950.78
2023-01-01T19:00:52.003Z,100954.44
2023-01-01T19:03:28.440Z,100958.72
2023-01-01T19:06:03.279Z,100955.38
2023-01-01T19:08:33.923Z,100952.72
2023-01-01T19:11:09.291Z,100948.69
2023-01-01T19:13:43.226Z,100947.81
2023-01-01T19:16:25.499Z,100936.97
2023-01-01T19:18:56.590Z,100931.13
2023-01-01T19:21:30.221Z,100930.25
2023-01-01T19:24:03.301Z,100936.06
2023-01-01T19:26:39.129Z,100929.22
2023-01-01T19:29:17.591Z,100920.75
2023-01-01T19:31:49.984Z,100920.75
2023-01-01T19:34:20.658Z,100926.00
2023-01-01T19:36:53.955Z,100924.81
2023-01-01T19:39:24.503Z,100916.25
2023-01-01T19:41:56.849Z,100911.06
2023-01-01T19:44:27.670Z,100922.34
2023-01-01T19:47:01.094Z,100922.50
2023-01-01T19:49:31.828Z,100909.59
2023-01-01T19:52:06.339Z,100918.88
2023-01-01T19:54:36.976Z,100917.75
2023-01-01T19:57:07.607Z,100919.50
2023-01-01T19:59:38.686Z,100917.22
2023-01-01T20:05:03.511Z,100920.38
2023-01-01T20:07:37.101Z,100899.03
2023-01-01T20:10:08.693Z,100930.09
2023-01-01T20:12:39.513Z,100926.78
2023-01-01T20:15:13.250Z,100916.50
2023-01-01T20:17:44.164Z,100932.25
2023-01-01T20:20:16.338Z,100929.22
2023-01-01T20:22:52.804Z,100920.34
2023-01-01T20:25:23.398Z,100922.00
2023-01-01T20:28:06.242Z,100920.19
2023-01-01T20:30:37.408Z,100921.84
2023-01-01T20:33:08.016Z,100924.09
2023-01-01T20:35:51.063Z,100913.31
2023-01-01T20:38:24.253Z,100926.22
2023-01-01T20:40:54.961Z,100904.47
2023-01-01T20:43:25.496Z,100902.38
2023-01-01T20:45:56.135Z,100918.00
2023-01-01T20:48:26.870Z,100915.41
2023-01-01T20:50:57.559Z,100919.91
2023-01-01T20:53:30.998Z,100911.19
2023-01-01T20:56:04.171Z,100917.00
2023-01-01T20:58:34.632Z,100912.41
2023-01-01T21:01:05.426Z,100911.78
2023-01-01T21:03:36.548Z,100914.16
2023-01-01T21:06:07.491Z,100924.16
2023-01-01T21:08:40.858Z,100913.91
2023-01-01T21:11:12.383Z,100908.44
2023-01-01T21:13:42.857Z,100893.34
2023-01-01T21:16:19.141Z,100891.69
2023-01-01T21:18:51.263Z,100882.22
2023-01-01T21:21:23.785Z,100879.16
2023-01-01T21:24:04.001Z,100871.28
2023-01-01T21:26:39.215Z,100870.09
2023-01-01T21:29:17.367Z,100861.19
2023-01-01T21:31:48.279Z,100859.16
2023-01-01T21:34:37.891Z,100844.19
2023-01-01T21:37:16.521Z,100840.94
2023-01-01T21:39:49.796Z,100835.59
2023-01-01T21:42:26.474Z,100841.53
2023-01-01T21:45:00.575Z,100829.81
2023-01-01T21:47:30.861Z,100825.50
2023-01-01T21:50:01.401Z,100839.78
2023-01-01T21:52:31.796Z,100835.59
2023-01-01T21:55:04.849Z,100829.94
2023-01-01T21:57:36.570Z,100837.66
2023-01-01T22:00:14.732Z,100845.53
2023-01-01T22:02:49.068Z,100848.91
2023-01-01T22:05:34.351Z,100832.44
2023-01-01T22:08:25.023Z,100822.50
2023-01-01T22:11:00.300Z,100827.97
2023-01-01T22:13:31.500Z,100818.97
2023-01-01T22:16:03.168Z,100818.63
2023-01-01T22:18:39.167Z,100793.25
2023-01-01T22:21:17.394Z,100788.53
2023-01-01T22:23:48.452Z,100787.16
2023-01-01T22:26:27.842Z,100788.97
2023-01-01T22:29:02.569Z,100759.97
2023-01-01T22:31:36.641Z,100773.28
2023-01-01T22:34:06.822Z,100772.97
2023-01-01T22:36:38.604Z,100756.97
2023-01-01T22:39:18.147Z,100758.00
2023-01-01T22:41:53.844Z,100753.56
2023-01-01T22:44:31.783Z,100752.78
2023-01-01T22:47:03.575Z,100745.50
2023-01-01T22:49:38.623Z,100741.06
2023-01-01T22:52:09.137Z,100746.88
2023-01-01T22:54:39.571Z,100741.06
2023-01-01T22:57:12.664Z,100745.09
2023-01-01T22:59:43.459Z,100746.47
2023-01-01T23:02:14.055Z,100747.75
2023-01-01T23:04:44.491Z,100742.44
2023-01-01T23:07:15.208Z,100736.50
2023-01-01T23:09:47.039Z,100738.16
2023-01-01T23:12:21.240Z,100734.44
2023-01-01T23:15:04.102Z,100719.94
2023-01-01T23:17:36.960Z,100718.91
2023-01-01T23:20:09.421Z,100706.31
2023-01-01T23:22:45.074Z,100700.22
2023-01-01T23:25:20.614Z,100693.56
2023-01-01T23:27:56.205Z,100692.06
2023-01-01T23:30:26.754Z,100701.25
2023-01-01T23:32:58.007Z,100697.97
2023-01-01T23:35:28.487Z,100688.63
2023-01-01T23:37:59.293Z,100662.19
2023-01-01T23:40:31.492Z,100683.72
2023-01-01T23:43:06.903Z,100683.84
2023-01-01T23:45:38.175Z,100677.06
2023-01-01T23:48:12.570Z,100681.06
2023-01-01T23:50:43.358Z,100675.25
2023-01-01T23:53:16.042Z,100672.72
2023-01-01T23:55:47.044Z,100650.25
2023-01-01T23:58:20.121Z,100662.66
